EST,Max TemperatureF,Mean TemperatureF,Min TemperatureF,Max Dew PointF,MeanDew PointF,Min DewpointF,Max Humidity, Mean Humidity, Min Humidity, Max Sea Level PressureIn, Mean Sea Level PressureIn, Min Sea Level PressureIn, Max VisibilityMiles, Mean VisibilityMiles, Min VisibilityMiles, Max Wind SpeedMPH, Mean Wind SpeedMPH, Max Gust SpeedMPH,PrecipitationIn, CloudCover, Events, WindDirDegrees
2010-11-1,59,49,39,38,36,32,85,63,40,30.42,30.31,30.17,10,10,10,9,2,12,0.00,0,,135
2010-11-2,51,43,35,35,32,28,92,69,46,30.48,30.41,30.34,10,10,10,12,3,16,0.00,0,,131
2010-11-3,56,47,38,45,37,33,86,68,50,30.32,30.13,29.88,10,10,6,10,2,13,0.23,4,Rain,115
2010-11-4,50,45,39,46,43,34,100,83,65,29.87,29.68,29.56,10,7,2,15,5,20,0.79,7,Rain,342
2010-11-5,52,45,37,36,34,30,85,68,50,30.01,29.75,29.59,10,10,10,23,9,26,T,4,,299
2010-11-6,50,41,32,27,22,17,64,48,31,30.40,30.21,30.01,10,10,10,20,9,24,0.00,4,,321
2010-11-7,52,41,30,22,20,18,61,44,26,30.48,30.36,30.19,10,10,10,14,6,18,0.00,0,,317
2010-11-8,66,52,37,31,27,22,54,40,26,30.17,30.00,29.88,10,10,10,25,10,37,0.00,0,,287
2010-11-9,73,61,49,33,31,29,38,29,20,30.05,29.98,29.92,10,10,10,17,6,31,0.00,0,,299
2010-11-10,70,54,38,40,36,31,79,55,31,30.25,30.14,30.06,10,10,10,12,2,15,0.00,0,,13
2010-11-11,68,53,38,38,36,31,86,56,26,30.44,30.36,30.26,10,10,10,9,1,12,0.00,0,,40
2010-11-12,66,49,32,36,30,22,89,55,20,30.47,30.40,30.35,10,10,10,9,1,14,0.00,0,,58
2010-11-13,67,48,29,29,27,24,82,51,20,30.34,30.23,30.12,10,10,10,10,2,17,0.00,0,,98
2010-11-14,65,49,33,34,30,27,82,55,28,30.14,30.05,29.98,10,10,10,9,2,14,0.00,3,,110
2010-11-15,60,50,40,50,44,34,93,73,52,30.04,29.99,29.96,10,8,4,9,3,12,0.16,6,Rain,116
2010-11-16,58,53,48,53,49,48,100,90,80,29.98,29.84,29.57,10,3,0,18,4,21,0.58,8,Rain,154
2010-11-17,58,50,41,45,33,9,77,46,14,30.17,29.92,29.62,10,10,10,25,13,36,0.00,2,,289
2010-11-18,53,44,35,37,35,32,89,70,50,30.27,30.21,30.17,10,10,10,21,6,26,T,4,Rain,294
2010-11-19,57,46,35,35,32,29,79,61,43,30.38,30.30,30.25,10,10,10,13,3,15,0.00,0,,104
2010-11-20,65,50,34,41,37,33,85,61,37,30.34,30.28,30.24,10,10,10,24,4,31,0.00,0,,287
2010-11-21,60,48,36,41,38,35,92,70,47,30.46,30.39,30.34,10,10,8,10,2,16,0.00,0,,136
2010-11-22,69,53,36,47,42,35,100,73,45,30.40,30.29,30.15,10,9,6,9,2,14,0.00,0,,159
2010-11-23,63,53,43,50,43,33,100,73,46,30.16,30.09,30.06,10,10,7,21,6,26,0.00,3,,292
2010-11-24,57,46,34,30,21,14,52,36,19,30.28,30.22,30.17,10,10,10,13,5,16,T,2,,59
2010-11-25,52,46,39,45,37,27,93,71,49,30.19,30.02,29.80,10,9,7,15,6,17,0.00,4,,113
2010-11-26,58,47,36,54,37,16,93,66,39,29.88,29.81,29.74,10,10,5,25,8,29,0.01,5,Rain,285
2010-11-27,45,38,31,21,19,14,63,50,37,30.25,30.03,29.89,10,10,9,37,16,47,0.00,1,,302
2010-11-28,47,36,24,25,21,19,81,59,37,30.44,30.37,30.26,10,10,10,13,2,15,0.00,0,,120
2010-11-29,46,34,22,31,26,20,88,69,49,30.53,30.45,30.38,10,10,10,12,3,20,0.00,4,,121
2010-11-30,61,51,40,60,46,33,100,79,58,30.36,30.08,29.75,10,3,0,21,3,32,1.70,8,Fog-Rain,175